Terminal Aerodrome Forecast
Issued by NWS Glasgow, MT

Home | Current Version | Previous Version | Text Only | Print | Product List | Glossary On
Versions: 1 2 3 4 5 6 7 8 9 10 11 12 13
000
FTUS45 KGGW 022300
TAFGGW
TAF
KGGW 022321Z 0300/0324 VRB04KT P6SM SCT180
     FM030600 10008KT P6SM SCT090
     FM031500 00000KT P6SM BKN100
     FM031800 29013KT P6SM VCSH BKN100=

USA.gov is the U.S. government's official web portal to all federal, state and local government web resources and services.